Atlasgracht — PCVX — position and weather

sailwx.info

Track history (hours):
 
Tides and Currents Weather Stations Pressure Air Temp Water Temp Dewpoint Dewpoint Depression Visibility Wind Speed Wind Dir Waves Ship Positions

Atlasgracht

Last reported at 2018-Nov-11 02:30 UTC. Time now 2018-Nov-18 16:09 UTC.
Position N 54°42' E 020°28'.

Length 130 m; beam 19 m; draft 9 m.

Type: Cargo ship. MMSI: 244060802.

Date/timePositionNaut miles runAvg speedWind from/ knotsBaromVisibWave heightAir tempDewpointWater temp
2018-Nov-11 02:30N 54°42' E 020°28'0 0.0
2018-Nov-11 02:00N 54°42' E 020°28'0 0.0
2018-Nov-11 01:30N 54°42' E 020°28'0 0.0
2018-Nov-11 00:57N 54°42' E 020°28'0 0.0
2018-Nov-11 00:30N 54°42' E 020°28'0 0.0
2018-Nov-10 23:54N 54°42' E 020°28'0 0.0
2018-Nov-10 23:27N 54°42' E 020°28'0 0.0
2018-Nov-10 23:00N 54°42' E 020°28'0 0.0
2018-Nov-10 22:27N 54°42' E 020°28'0 0.0
2018-Nov-10 21:57N 54°42' E 020°28'0 0.0
2018-Nov-10 21:27N 54°42' E 020°28'0 0.0
2018-Nov-10 20:57N 54°42' E 020°28'0 0.0
2018-Nov-10 20:30N 54°42' E 020°28'0 0.0
2018-Nov-10 19:45N 54°42' E 020°28'0 0.0
2018-Nov-10 19:27N 54°42' E 020°28'0 0.0
2018-Nov-10 19:00N 54°42' E 020°28'0 0.0
2018-Nov-10 18:27N 54°42' E 020°28'0 0.0
2018-Nov-10 17:42N 54°42' E 020°28'0 0.0
2018-Nov-10 17:21N 54°42' E 020°28'0 0.0
2018-Nov-10 17:00N 54°42' E 020°28'0 0.0
2018-Nov-10 16:27N 54°42' E 020°28'0 0.0
2018-Nov-10 16:00N 54°42' E 020°28'0 0.0
2018-Nov-10 15:30N 54°42' E 020°28'0 0.0
2018-Nov-10 15:00N 54°42' E 020°28'0 0.0
2018-Nov-10 14:27N 54°42' E 020°28'0 0.0
2018-Nov-10 14:00N 54°42' E 020°28'0 0.0
2018-Nov-10 13:30N 54°42' E 020°28'0 0.0
2018-Nov-10 13:00N 54°42' E 020°28'0 0.0
2018-Nov-10 12:24N 54°42' E 020°28'0 0.0
2018-Nov-10 12:00N 54°42' E 020°28'0 0.0
2018-Nov-10 11:27N 54°42' E 020°28'0 0.6
2018-Nov-10 11:02N 54°42' E 020°28'3 5.3
2018-Nov-10 10:32N 54°41' E 020°23'4 7.4
2018-Nov-10 10:02N 54°41' E 020°17'4 7.1
2018-Nov-10 09:32N 54°41' E 020°11'3 5.6
2018-Nov-10 09:02N 54°39' E 020°07'3 6.0
2018-Nov-10 08:32N 54°39' E 020°02'4 7.1
2018-Nov-10 08:02N 54°38' E 019°56'3 6.0
2018-Nov-10 07:32N 54°39' E 019°51'2 3.3
2018-Nov-10 07:02N 54°39' E 019°48'0 0.1
2018-Nov-10 06:30N 54°39' E 019°48'0 0.0
2018-Nov-10 06:00N 54°39' E 019°48'0 0.0
2018-Nov-10 05:32N 54°39' E 019°48'0 0.2
2018-Nov-10 05:02N 54°40' E 019°48'2 3.5
2018-Nov-10 04:32N 54°41' E 019°46'2 4.6
2018-Nov-10 04:02N 54°42' E 019°43'4 7.0
2018-Nov-10 03:32N 54°45' E 019°40'5 9.7
2018-Nov-10 03:02N 54°50' E 019°43'5 9.8
2018-Nov-10 02:32N 54°54' E 019°46'510.1
2018-Nov-10 02:02N 54°59' E 019°50'5 9.9
2018-Nov-10 01:32N 55°01' E 019°58'510.2
2018-Nov-10 01:02N 55°01' E 020°07'510.1
2018-Nov-10 00:32N 55°00' E 020°16'3 6.8
2018-Nov-10 00:02N 54°59' E 020°21'0 0.3
2018-Nov-09 23:32N 54°59' E 020°22'0 0.0
2018-Nov-09 23:02N 54°59' E 020°22'0 0.0
2018-Nov-09 22:32N 54°59' E 020°22'0 0.0
2018-Nov-09 22:02N 54°59' E 020°22'0 0.0
2018-Nov-09 21:32N 54°59' E 020°22'0 0.9
2018-Nov-09 21:02N 54°59' E 020°22'0 0.0
2018-Nov-09 20:32N 54°59' E 020°22'0 0.0
2018-Nov-09 20:02N 54°59' E 020°22'0 0.1
2018-Nov-09 19:32N 54°59' E 020°23'0 0.2
2018-Nov-09 19:02N 54°59' E 020°23'0 0.5
2018-Nov-09 18:32N 54°59' E 020°23'0 0.3
2018-Nov-09 18:02N 54°59' E 020°23'0 0.0
2018-Nov-09 17:32N 54°59' E 020°23'0 0.0
2018-Nov-09 17:02N 54°59' E 020°23'0 0.0
2018-Nov-09 16:32N 54°59' E 020°23'0 0.0
2018-Nov-09 16:02N 54°59' E 020°23'0 0.0
2018-Nov-09 15:32N 54°59' E 020°23'0 0.0
2018-Nov-09 15:02N 54°59' E 020°23'0 0.0
2018-Nov-09 14:32N 54°59' E 020°23'0 0.2
2018-Nov-09 14:02N 54°59' E 020°23'0 0.5
2018-Nov-09 13:32N 54°59' E 020°22'0 0.2
2018-Nov-09 13:02N 54°59' E 020°22'0 0.6
2018-Nov-09 12:32N 54°59' E 020°22'0 0.2
2018-Nov-09 12:02N 54°59' E 020°22'0 0.2
2018-Nov-09 11:32N 54°59' E 020°22'0 0.0
2018-Nov-09 11:02N 54°59' E 020°22'0 0.1
2018-Nov-09 10:32N 54°59' E 020°22'0 0.0
2018-Nov-09 10:02N 54°59' E 020°22'0 0.0
2018-Nov-09 09:32N 54°59' E 020°22'0 0.4
2018-Nov-09 09:02N 54°59' E 020°21'0 0.4
2018-Nov-09 08:32N 54°59' E 020°21'0 0.2
2018-Nov-09 08:02N 54°59' E 020°21'0 0.4
2018-Nov-09 07:32N 54°59' E 020°21'3 5.9
2018-Nov-09 07:02N 55°00' E 020°16'3 6.4
2018-Nov-09 06:32N 55°01' E 020°11'3 6.5
2018-Nov-09 06:02N 55°01' E 020°05'4 6.4
2018-Nov-09 05:28N 55°01' E 019°59'7 5.9
2018-Nov-09 04:13N 54°56' E 019°48'1 6.5
2018-Nov-09 04:01N 54°55' E 019°47'3 6.2
2018-Nov-09 03:32N 54°52' E 019°45'3 6.0
2018-Nov-09 03:02N 54°50' E 019°43'3 6.1
2018-Nov-09 02:32N 54°47' E 019°41'3 5.6
2018-Nov-09 02:02N 54°44' E 019°42'3 6.3
2018-Nov-09 01:32N 54°42' E 019°46'4 7.2
2018-Nov-09 01:02N 54°40' E 019°51'3 5.6
2018-Nov-09 00:30N 54°38' E 019°55'0 0.0
2018-Nov-09 00:00N 54°38' E 019°55'0 0.0
2018-Nov-08 23:30N 54°38' E 019°55'0 0.0
2018-Nov-08 23:00N 54°38' E 019°55'0 0.0
2018-Nov-08 22:30N 54°38' E 019°55'0 0.0
2018-Nov-08 22:00N 54°38' E 019°55'0 0.0
2018-Nov-08 21:30N 54°38' E 019°55'0 0.0
2018-Nov-08 21:00N 54°38' E 019°55'0 0.0
2018-Nov-08 20:30N 54°38' E 019°55'0 0.0
2018-Nov-08 20:00N 54°38' E 019°55'0 0.0
2018-Nov-08 19:30N 54°38' E 019°55'0 0.0
2018-Nov-08 19:00N 54°38' E 019°55'0 0.0
2018-Nov-08 18:30N 54°38' E 019°55'0 0.0
2018-Nov-08 18:00N 54°38' E 019°55'0 0.0
2018-Nov-08 17:30N 54°38' E 019°55'0 0.0
2018-Nov-08 17:00N 54°38' E 019°55'0 0.0
2018-Nov-08 16:30N 54°38' E 019°55'0 0.0
2018-Nov-08 16:02N 54°38' E 019°55'0 0.0
2018-Nov-08 15:32N 54°38' E 019°55'0 0.0
2018-Nov-08 15:02N 54°38' E 019°55'0 0.0
2018-Nov-08 14:32N 54°38' E 019°55'0 0.0
2018-Nov-08 14:02N 54°38' E 019°55'0 0.0
2018-Nov-08 13:32N 54°38' E 019°55'0 0.0
2018-Nov-08 13:02N 54°38' E 019°55'0 0.0
2018-Nov-08 12:32N 54°38' E 019°55'0 0.0
2018-Nov-08 12:02N 54°38' E 019°55'0 0.0
2018-Nov-08 11:32N 54°38' E 019°55'0 0.0
2018-Nov-08 11:02N 54°38' E 019°55'0 0.0
2018-Nov-08 10:32N 54°38' E 019°55'0 0.0
2018-Nov-08 10:02N 54°38' E 019°55'0 0.0
2018-Nov-08 09:32N 54°38' E 019°55'1 1.4
2018-Nov-08 09:02N 54°38' E 019°54'3 5.7
2018-Nov-08 08:32N 54°39' E 019°50'1 1.4
2018-Nov-08 08:01N 54°39' E 019°49'0 0.0
2018-Nov-08 07:31N 54°39' E 019°49'0 0.0
2018-Nov-08 07:01N 54°39' E 019°49'0 0.0
2018-Nov-08 06:31N 54°39' E 019°49'0 0.0
2018-Nov-08 06:01N 54°39' E 019°49'0 0.0
2018-Nov-08 05:28N 54°39' E 019°49'0 0.0
2018-Nov-08 05:01N 54°39' E 019°49'0 0.0
2018-Nov-08 04:31N 54°39' E 019°49'0 0.0
2018-Nov-08 04:01N 54°39' E 019°49'0 0.0
2018-Nov-08 03:31N 54°39' E 019°49'0 0.0
2018-Nov-08 03:01N 54°39' E 019°49'0 0.0
2018-Nov-08 02:31N 54°39' E 019°49'0 0.0
2018-Nov-08 02:01N 54°39' E 019°49'0 0.0
2018-Nov-08 01:28N 54°39' E 019°49'0 0.0
2018-Nov-08 01:01N 54°39' E 019°49'0 0.0
2018-Nov-08 00:43N 54°39' E 019°49'0 0.0
2018-Nov-08 00:31N 54°39' E 019°49'0 0.0
2018-Nov-08 00:22N 54°39' E 019°49'0 0.0
2018-Nov-08 00:01N 54°39' E 019°49'0 0.0
2018-Nov-07 23:31N 54°39' E 019°49'0 0.0
2018-Nov-07 23:01N 54°39' E 019°49'0 0.0
2018-Nov-07 22:31N 54°39' E 019°49'0 0.2
2018-Nov-07 22:02N 54°39' E 019°49'3 6.0
2018-Nov-07 21:32N 54°41' E 019°45'5 9.5
2018-Nov-07 21:02N 54°45' E 019°40'611.9
2018-Nov-07 20:32N 54°51' E 019°44'712.4
2018-Nov-07 20:00N 54°57' E 019°48'612.4
2018-Nov-07 19:32N 55°01' E 019°56'713.2
2018-Nov-07 19:02N 55°01' E 020°07'612.1
2018-Nov-07 18:32N 54°60' E 020°18'3 5.3
2018-Nov-07 18:02N 54°59' E 020°22'0 0.3
2018-Nov-07 17:32N 54°59' E 020°22'0 0.0
2018-Nov-07 17:02N 54°59' E 020°22'0 0.0
2018-Nov-07 16:32N 54°59' E 020°22'0 0.0
2018-Nov-07 16:02N 54°59' E 020°22'0 0.0
2018-Nov-07 15:32N 54°59' E 020°22'0 0.0
2018-Nov-07 15:02N 54°59' E 020°22'0 0.0
2018-Nov-07 14:31N 54°59' E 020°22'0 0.0
2018-Nov-07 14:02N 54°59' E 020°22'0 0.0
2018-Nov-07 13:32N 54°59' E 020°22'0 0.0
2018-Nov-07 13:02N 54°59' E 020°22'0 0.0
2018-Nov-07 12:32N 54°59' E 020°22'0 0.0
2018-Nov-07 12:02N 54°59' E 020°22'0 0.0
2018-Nov-07 11:32N 54°59' E 020°22'0 0.0
2018-Nov-07 11:02N 54°59' E 020°22'0 0.0
2018-Nov-07 10:32N 54°59' E 020°22'0 0.0
2018-Nov-07 10:02N 54°59' E 020°22'0 0.0
2018-Nov-07 09:32N 54°59' E 020°22'0 0.0
2018-Nov-07 09:02N 54°59' E 020°22'0 0.0
2018-Nov-07 08:32N 54°59' E 020°22'0 0.0
2018-Nov-07 08:02N 54°59' E 020°22'0 0.0
2018-Nov-07 07:32N 54°59' E 020°22'0 0.0
2018-Nov-07 07:02N 54°59' E 020°22'0 0.0
2018-Nov-07 06:32N 54°59' E 020°22'0 0.0
2018-Nov-07 06:02N 54°59' E 020°22'0 0.0
2018-Nov-07 05:32N 54°59' E 020°22'0 0.0
2018-Nov-07 05:02N 54°59' E 020°22'0 0.0
2018-Nov-07 04:32N 54°59' E 020°22'0 0.0
2018-Nov-06 23:30N 54°59' E 020°22'0 0.0
2018-Nov-06 23:03N 54°59' E 020°22'0 0.0
2018-Nov-06 23:00N 54°59' E 020°22'0 0.0
2018-Nov-06 22:00N 54°59' E 020°22'0 0.0
2018-Nov-06 21:30N 54°59' E 020°22'0 0.3
2018-Nov-06 21:03N 54°59' E 020°22'0 0.8
2018-Nov-06 21:00N 54°59' E 020°22'0 0.5
2018-Nov-06 20:30N 54°59' E 020°23'0 0.5
2018-Nov-06 20:03N 54°59' E 020°23'0 0.5
2018-Nov-06 20:00N 54°59' E 020°23'0 0.0
2018-Nov-06 19:30N 54°59' E 020°23'0 0.0
2018-Nov-06 19:03N 54°59' E 020°23'0 0.0
2018-Nov-06 19:00N 54°59' E 020°23'0 0.0
2018-Nov-06 18:30N 54°59' E 020°23'0 0.0
2018-Nov-06 18:03N 54°59' E 020°23'0 0.0
2018-Nov-06 18:00N 54°59' E 020°23'0 0.0
2018-Nov-06 17:30N 54°59' E 020°23'0 0.0
2018-Nov-06 17:03N 54°59' E 020°23'0 0.0
2018-Nov-06 17:00N 54°59' E 020°23'0 0.0
2018-Nov-06 16:30N 54°59' E 020°23'0 0.0
2018-Nov-06 16:03N 54°59' E 020°23'0 0.0
2018-Nov-06 16:00N 54°59' E 020°23'0 0.0
2018-Nov-06 15:30N 54°59' E 020°23'0 0.0
2018-Nov-06 15:03N 54°59' E 020°23'0 0.0
2018-Nov-06 15:00N 54°59' E 020°23'0 0.0
2018-Nov-06 14:30N 54°59' E 020°23'0 0.0
2018-Nov-06 14:03N 54°59' E 020°23'0 0.0
2018-Nov-06 14:00N 54°59' E 020°23'0 0.0
2018-Nov-06 13:30N 54°59' E 020°23'0 0.0
2018-Nov-06 13:03N 54°59' E 020°23'0 0.0
2018-Nov-06 13:00N 54°59' E 020°23'0 0.0
2018-Nov-06 12:30N 54°59' E 020°23'0 0.0
2018-Nov-06 12:03N 54°59' E 020°23'0 0.0
2018-Nov-06 12:00N 54°59' E 020°23'0 0.0
2018-Nov-06 11:30N 54°59' E 020°23'0 0.0
2018-Nov-06 11:03N 54°59' E 020°23'0 0.0
2018-Nov-06 11:00N 54°59' E 020°23'0 0.0
2018-Nov-06 10:30N 54°59' E 020°23'0 0.0
2018-Nov-06 10:03N 54°59' E 020°23'0 0.1
2018-Nov-06 10:00N 54°59' E 020°23'0 0.4
2018-Nov-06 09:30N 54°59' E 020°23'0 0.4
2018-Nov-06 09:03N 54°59' E 020°23'0 2.0
2018-Nov-06 09:00N 54°59' E 020°22'1 1.6
2018-Nov-06 08:30N 54°59' E 020°21'0 0.0
2018-Nov-06 08:03N 54°59' E 020°21'0 0.0
2018-Nov-06 08:00N 54°59' E 020°21'1 2.4
2018-Nov-06 07:30N 54°60' E 020°19'2 3.9
2018-Nov-06 07:03N 55°00' E 020°16'0 3.9
2018-Nov-06 07:00N 55°00' E 020°16'2 3.8
2018-Nov-06 06:30N 55°01' E 020°13'2 4.2
2018-Nov-06 06:03N 55°01' E 020°09'0 4.2
2018-Nov-06 06:00N 55°01' E 020°09'2 4.2
2018-Nov-06 05:30N 55°01' E 020°05'2 4.1
2018-Nov-06 05:03N 55°01' E 020°02'0 4.2
2018-Nov-06 05:00N 55°01' E 020°02'2 4.3
2018-Nov-06 04:30N 55°01' E 019°58'2 3.9
2018-Nov-06 04:03N 55°01' E 019°55'0 3.3
2018-Nov-06 04:00N 55°01' E 019°55'2 3.7
2018-Nov-06 03:30N 54°59' E 019°52'2 4.1
2018-Nov-06 03:03N 54°58' E 019°50'0 4.0
2018-Nov-06 03:00N 54°58' E 019°50'2 4.1
2018-Nov-06 02:30N 54°56' E 019°48'2 4.2
2018-Nov-06 02:03N 54°54' E 019°46'0 4.3
2018-Nov-06 02:00N 54°54' E 019°46'2 4.2
2018-Nov-06 01:30N 54°52' E 019°45'4 4.3
2018-Nov-06 00:30N 54°48' E 019°42'4 4.3
2018-Nov-05 23:30N 54°44' E 019°40'2 3.9
2018-Nov-05 23:03N 54°43' E 019°42'0 4.3
2018-Nov-05 23:00N 54°43' E 019°42'2 4.3
2018-Nov-05 22:30N 54°42' E 019°45'2 5.6
2018-Nov-05 22:03N 54°40' E 019°49'0 6.5
2018-Nov-05 22:00N 54°40' E 019°49'3 6.3
2018-Nov-05 21:30N 54°38' E 019°54'1 1.9
2018-Nov-05 21:00N 54°38' E 019°55'0 0.0
2018-Nov-05 20:30N 54°38' E 019°55'0 0.0
2018-Nov-05 20:03N 54°38' E 019°55'0 0.0
2018-Nov-05 20:00N 54°38' E 019°55'0 0.0
2018-Nov-05 19:30N 54°38' E 019°55'0 0.0
2018-Nov-05 19:03N 54°38' E 019°55'0 0.0
2018-Nov-05 19:00N 54°38' E 019°55'0 0.0
2018-Nov-05 18:30N 54°38' E 019°55'0 0.0
2018-Nov-05 18:03N 54°38' E 019°55'0 0.0
2018-Nov-05 18:00N 54°38' E 019°55'0 0.0
2018-Nov-05 17:30N 54°38' E 019°55'0 0.0
2018-Nov-05 17:03N 54°38' E 019°55'0 0.0
2018-Nov-05 16:57N 54°38' E 019°55'0 0.0
2018-Nov-05 16:27N 54°38' E 019°55'0 0.0
2018-Nov-05 16:03N 54°38' E 019°55'0 0.0
2018-Nov-05 16:00N 54°38' E 019°55'0 0.0
2018-Nov-05 15:30N 54°38' E 019°55'0 0.0
2018-Nov-05 15:03N 54°38' E 019°55'0 0.0
2018-Nov-05 14:57N 54°38' E 019°55'0 0.0
2018-Nov-05 14:30N 54°38' E 019°55'0 0.0
2018-Nov-05 14:03N 54°38' E 019°55'0 0.0
2018-Nov-05 14:00N 54°38' E 019°55'0 0.0
2018-Nov-05 13:00N 54°38' E 019°55'0 0.0
2018-Nov-05 12:30N 54°38' E 019°55'0 0.0
2018-Nov-05 12:03N 54°38' E 019°55'0 0.0
2018-Nov-05 12:00N 54°38' E 019°55'0 0.0
2018-Nov-05 11:27N 54°38' E 019°55'0 0.0
2018-Nov-05 11:03N 54°38' E 019°55'0 0.0
2018-Nov-05 11:00N 54°38' E 019°55'0 0.0
2018-Nov-05 10:30N 54°38' E 019°55'0 0.0
2018-Nov-05 10:03N 54°38' E 019°55'0 0.0
2018-Nov-05 10:00N 54°38' E 019°55'0 0.0
2018-Nov-05 09:30N 54°38' E 019°55'0 0.0
2018-Nov-05 09:03N 54°38' E 019°55'0 0.0
2018-Nov-05 09:00N 54°38' E 019°55'0 0.0
2018-Nov-05 08:30N 54°38' E 019°55'0 0.0
2018-Nov-05 08:03N 54°38' E 019°55'0 0.0
2018-Nov-05 08:00N 54°38' E 019°55'0 0.0
2018-Nov-05 07:30N 54°38' E 019°55'0 0.0
2018-Nov-05 07:03N 54°38' E 019°55'0 0.0
2018-Nov-05 07:00N 54°38' E 019°55'0 0.0
2018-Nov-05 06:30N 54°38' E 019°55'0 0.0
2018-Nov-05 06:03N 54°38' E 019°55'0 0.0
2018-Nov-05 06:00N 54°38' E 019°55'0 0.0
2018-Nov-05 05:30N 54°38' E 019°55'0 0.0
2018-Nov-05 05:03N 54°38' E 019°55'0 0.0
2018-Nov-05 05:00N 54°38' E 019°55'0 0.0
2018-Nov-05 04:30N 54°38' E 019°55'0 0.0
2018-Nov-05 04:03N 54°38' E 019°55'0 0.0
2018-Nov-05 04:00N 54°38' E 019°55'0 0.0
2018-Nov-05 03:30N 54°38' E 019°55'0 0.0
2018-Nov-05 03:03N 54°38' E 019°55'0 0.0
2018-Nov-05 03:00N 54°38' E 019°55'0 0.0
2018-Nov-05 02:30N 54°38' E 019°55'0 0.0
2018-Nov-05 02:03N 54°38' E 019°55'0 0.0
2018-Nov-05 02:00N 54°38' E 019°55'0 0.0
2018-Nov-05 01:30N 54°38' E 019°55'0 0.0
2018-Nov-05 01:00N 54°38' E 019°55'0 0.0
2018-Nov-05 00:30N 54°38' E 019°55'0 0.0
2018-Nov-05 00:00N 54°38' E 019°55'0 0.0
2018-Nov-04 23:30N 54°38' E 019°55'0 0.0
2018-Nov-04 23:03N 54°38' E 019°55'0 0.0
2018-Nov-04 23:00N 54°38' E 019°55'0 0.0
2018-Nov-04 22:30N 54°38' E 019°55'0 0.0
2018-Nov-04 22:03N 54°38' E 019°55'0 0.0
2018-Nov-04 22:00N 54°38' E 019°55'0 0.0
2018-Nov-04 21:27N 54°38' E 019°55'0 0.0
2018-Nov-04 21:03N 54°38' E 019°55'0 0.0
2018-Nov-04 20:57N 54°38' E 019°55'0 0.0
2018-Nov-04 20:30N 54°38' E 019°55'0 0.0
2018-Nov-04 20:03N 54°38' E 019°55'0 0.0
2018-Nov-04 20:00N 54°38' E 019°55'0 0.0
2018-Nov-04 19:30N 54°38' E 019°55'0 0.0
2018-Nov-04 19:03N 54°38' E 019°55'0 0.0
2018-Nov-04 19:00N 54°38' E 019°55'0 0.0
2018-Nov-04 18:30N 54°38' E 019°55'0 0.8
2018-Nov-04 18:03N 54°38' E 019°55'0 4.0
2018-Nov-04 18:00N 54°38' E 019°54'3 6.3
2018-Nov-04 17:30N 54°40' E 019°50'2 3.8
2018-Nov-04 17:00N 54°40' E 019°46'0 0.3
2018-Nov-04 16:30N 54°40' E 019°46'1 2.4
2018-Nov-04 16:03N 54°41' E 019°45'0 2.4
2018-Nov-04 16:00N 54°41' E 019°45'1 2.1
2018-Nov-04 15:30N 54°42' E 019°43'1 2.2
2018-Nov-04 15:03N 54°42' E 019°42'0 2.2
2018-Nov-04 15:00N 54°42' E 019°41'1 2.0
2018-Nov-04 14:30N 54°43' E 019°40'1 1.9
2018-Nov-04 14:03N 54°43' E 019°39'0 2.0
2018-Nov-04 14:00N 54°43' E 019°39'1 2.5
2018-Nov-04 13:30N 54°45' E 019°39'2 3.2
2018-Nov-04 12:58N 54°46' E 019°40'2 3.7
2018-Nov-04 12:29N 54°48' E 019°41'1 2.7
2018-Nov-04 12:03N 54°49' E 019°42'0 2.7
2018-Nov-04 12:00N 54°49' E 019°42'1 2.8
2018-Nov-04 11:30N 54°50' E 019°43'3 7.6
2018-Nov-04 11:03N 54°53' E 019°46'010.0
2018-Nov-04 11:00N 54°54' E 019°46'510.0
2018-Nov-04 10:30N 54°58' E 019°51'510.1
2018-Nov-04 10:03N 55°01' E 019°57'110.6
2018-Nov-04 10:00N 55°01' E 019°58'611.9
2018-Nov-04 09:30N 55°01' E 020°08'612.5
2018-Nov-04 09:03N 55°00' E 020°18'0 7.1
2018-Nov-04 09:00N 54°60' E 020°19'2 3.7
2018-Nov-04 08:30N 54°60' E 020°22'1 1.3
2018-Nov-04 08:03N 54°59' E 020°22'0 0.5
2018-Nov-04 08:00N 54°59' E 020°22'0 0.1
2018-Nov-04 07:30N 54°59' E 020°22'0 0.0
2018-Nov-04 07:03N 54°59' E 020°22'0 0.0
2018-Nov-04 07:00N 54°59' E 020°22'0 0.0
2018-Nov-04 06:30N 54°59' E 020°22'0 0.0
2018-Nov-04 06:03N 54°59' E 020°22'0 0.1
2018-Nov-04 06:00N 54°59' E 020°22'0 0.0
2018-Nov-04 05:30N 54°59' E 020°22'0 0.0
2018-Nov-04 05:03N 54°59' E 020°22'0 0.0
2018-Nov-04 05:00N 54°59' E 020°22'0 0.0
2018-Nov-04 04:30N 54°59' E 020°22'0 0.0
2018-Nov-04 04:03N 54°59' E 020°22'0 0.0
2018-Nov-04 04:00N 54°59' E 020°22'0 0.0
2018-Nov-04 03:30N 54°59' E 020°22'0 0.0
2018-Nov-04 03:03N 54°59' E 020°22'0 0.1
2018-Nov-04 03:00N 54°59' E 020°22'0 0.0
2018-Nov-04 02:30N 54°59' E 020°22'0 0.0
2018-Nov-04 02:03N 54°59' E 020°22'0 0.0
2018-Nov-04 02:00N 54°59' E 020°22'0 0.0
2018-Nov-04 01:30N 54°59' E 020°22'0 0.0
2018-Nov-04 01:03N 54°59' E 020°22'0 0.0
2018-Nov-04 01:00N 54°59' E 020°22'0 0.0
2018-Nov-04 00:30N 54°59' E 020°22'0 0.0
2018-Nov-04 00:03N 54°59' E 020°22'0 0.1
2018-Nov-04 00:00N 54°59' E 020°22'0 0.0
2018-Nov-03 23:30N 54°59' E 020°22'0 0.0
2018-Nov-03 23:03N 54°59' E 020°22'0 0.0
2018-Nov-03 23:00N 54°59' E 020°22'0 0.0
2018-Nov-03 22:30N 54°59' E 020°22'0 0.0
2018-Nov-03 20:30N 54°59' E 020°22'0 0.0
2018-Nov-03 20:03N 54°59' E 020°22'0 0.0
2018-Nov-03 20:00N 54°59' E 020°22'0 0.0
2018-Nov-03 19:30N 54°59' E 020°22'0 0.0
2018-Nov-03 19:03N 54°59' E 020°22'0 0.0
2018-Nov-03 19:00N 54°59' E 020°22'0 0.0
2018-Nov-03 18:30N 54°59' E 020°22'0 0.0
2018-Nov-03 18:03N 54°59' E 020°22'0 0.0
2018-Nov-03 18:00N 54°59' E 020°22'0 0.0
2018-Nov-03 17:30N 54°59' E 020°22'0 0.0
2018-Nov-03 17:03N 54°59' E 020°22'0 0.0
2018-Nov-03 17:00N 54°59' E 020°22'0 0.0
2018-Nov-03 16:30N 54°59' E 020°22'0 0.0
2018-Nov-03 16:03N 54°59' E 020°22'0 0.0
2018-Nov-03 16:00N 54°59' E 020°22'0 0.0
2018-Nov-03 15:30N 54°59' E 020°22'0 0.0
2018-Nov-03 15:03N 54°59' E 020°22'0 0.1
2018-Nov-03 15:00N 54°59' E 020°22'0 0.0
2018-Nov-03 14:30N 54°59' E 020°22'0 0.0
2018-Nov-03 14:03N 54°59' E 020°22'0 0.0
2018-Nov-03 14:00N 54°59' E 020°22'0 0.0
2018-Nov-03 13:30N 54°59' E 020°22'0 0.0
2018-Nov-03 13:03N 54°59' E 020°22'0 0.0
2018-Nov-03 13:00N 54°59' E 020°22'0 0.0
2018-Nov-03 12:30N 54°59' E 020°22'0 0.0
2018-Nov-03 12:03N 54°59' E 020°22'0 0.0
2018-Nov-03 12:00N 54°59' E 020°22'0 0.0
2018-Nov-03 11:30N 54°59' E 020°22'0 0.0
2018-Nov-03 11:03N 54°59' E 020°22'0 0.0
2018-Nov-03 11:00N 54°59' E 020°22'0 0.0
2018-Nov-03 10:30N 54°59' E 020°22'0 0.0
2018-Nov-03 10:03N 54°59' E 020°22'0 0.0
2018-Nov-03 10:00N 54°59' E 020°22'0 0.0
2018-Nov-03 09:30N 54°59' E 020°22'0 0.0
2018-Nov-03 09:03N 54°59' E 020°22'0 0.0
2018-Nov-03 09:00N 54°59' E 020°22'0 0.0
2018-Nov-03 08:30N 54°59' E 020°22'0 0.0
2018-Nov-03 08:03N 54°59' E 020°22'0 0.0
2018-Nov-03 08:00N 54°59' E 020°22'0 0.0
2018-Nov-03 07:30N 54°59' E 020°22'0 0.0
2018-Nov-03 07:03N 54°59' E 020°22'0 0.0
2018-Nov-03 07:00N 54°59' E 020°22'0 0.0
2018-Nov-03 06:30N 54°59' E 020°22'0 0.0
2018-Nov-03 06:03N 54°59' E 020°22'0 0.0
2018-Nov-03 06:00N 54°59' E 020°22'0 0.0
2018-Nov-03 05:30N 54°59' E 020°22'0 0.0
2018-Nov-03 05:03N 54°59' E 020°22'0 0.0
2018-Nov-03 05:00N 54°59' E 020°22'0 0.0
2018-Nov-03 04:30N 54°59' E 020°22'0 0.0
2018-Nov-03 04:03N 54°59' E 020°22'0 0.0
2018-Nov-03 04:00N 54°59' E 020°22'0 0.0
2018-Nov-03 03:30N 54°59' E 020°22'0 0.0
2018-Nov-03 03:03N 54°59' E 020°22'0 0.0
2018-Nov-03 03:00N 54°59' E 020°22'0 0.0
2018-Nov-03 02:30N 54°59' E 020°22'0 0.0
2018-Nov-03 02:03N 54°59' E 020°22'0 0.0
2018-Nov-03 02:00N 54°59' E 020°22'0 0.0
2018-Nov-03 01:30N 54°59' E 020°22'0 0.0
2018-Nov-03 01:03N 54°59' E 020°22'0 0.0
2018-Nov-03 01:00N 54°59' E 020°22'0 0.0
2018-Nov-03 00:30N 54°59' E 020°22'0 0.0
2018-Nov-03 00:03N 54°59' E 020°22'0 0.0
2018-Nov-03 00:00N 54°59' E 020°22'0 0.0
2018-Nov-02 23:30N 54°59' E 020°22'0 0.0
2018-Nov-02 23:03N 54°59' E 020°22'0 0.0
2018-Nov-02 23:00N 54°59' E 020°22'0 0.0
2018-Nov-02 22:30N 54°59' E 020°22'0 0.0
2018-Nov-02 22:03N 54°59' E 020°22'0 0.0
2018-Nov-02 22:00N 54°59' E 020°22'0 0.0
2018-Nov-02 21:30N 54°59' E 020°22'0 0.0
2018-Nov-02 21:03N 54°59' E 020°22'0 0.1
2018-Nov-02 21:00N 54°59' E 020°22'0 0.1
2018-Nov-02 20:30N 54°59' E 020°22'0 0.4
2018-Nov-02 20:03N 54°59' E 020°22'0 0.5
2018-Nov-02 20:00N 54°59' E 020°22'0 0.1
2018-Nov-02 19:30N 54°59' E 020°22'0 0.3
2018-Nov-02 19:03N 54°59' E 020°22'0 0.6
2018-Nov-02 19:00N 54°59' E 020°22'0 0.7
2018-Nov-02 18:30N 54°60' E 020°22'0 0.0
2018-Nov-02 18:03N 54°60' E 020°22'0 0.0
2018-Nov-02 18:00N 54°60' E 020°22'0 0.0
2018-Nov-02 17:30N 54°60' E 020°22'0 0.1
2018-Nov-02 17:03N 54°59' E 020°22'0 1.7
2018-Nov-02 17:00N 54°59' E 020°22'1 2.7
2018-Nov-02 16:30N 54°58' E 020°20'0 0.2
2018-Nov-02 16:02N 54°59' E 020°20'0 0.5
2018-Nov-02 15:59N 54°59' E 020°21'0 0.0
2018-Nov-02 15:29N 54°59' E 020°21'0 0.0
2018-Nov-02 15:02N 54°59' E 020°21'0 0.0
2018-Nov-02 14:59N 54°59' E 020°21'0 0.0
2018-Nov-02 14:29N 54°59' E 020°21'0 0.0
2018-Nov-02 13:59N 54°59' E 020°21'0 0.0
2018-Nov-02 13:29N 54°59' E 020°21'0 0.0
2018-Nov-02 13:02N 54°59' E 020°21'0 0.0
2018-Nov-02 12:59N 54°59' E 020°21'0 0.0
2018-Nov-02 12:29N 54°59' E 020°21'0 0.0
2018-Nov-02 12:02N 54°59' E 020°21'0 0.0
2018-Nov-02 11:59N 54°59' E 020°21'0 0.0
2018-Nov-02 11:29N 54°59' E 020°21'0 0.0
2018-Nov-02 10:56N 54°59' E 020°21'0 0.0
2018-Nov-02 10:29N 54°59' E 020°21'0 0.0
2018-Nov-02 10:02N 54°59' E 020°21'0 0.1
2018-Nov-02 09:59N 54°59' E 020°21'0 0.8
2018-Nov-02 09:30N 54°59' E 020°21'1 2.0
2018-Nov-02 09:03N 54°60' E 020°22'0 0.0
2018-Nov-02 09:00N 54°60' E 020°22'0 0.0
2018-Nov-02 08:30N 54°60' E 020°22'0 0.0
2018-Nov-02 08:03N 54°60' E 020°22'0 0.0
2018-Nov-02 08:00N 54°60' E 020°22'0 0.0
2018-Nov-02 07:30N 54°60' E 020°22'0 0.0
2018-Nov-02 07:03N 54°60' E 020°22'0 0.0
2018-Nov-02 07:00N 54°60' E 020°22'0 0.0
2018-Nov-02 06:30N 54°60' E 020°22'0 0.0
2018-Nov-02 06:03N 54°60' E 020°22'0 0.0
2018-Nov-02 06:00N 54°60' E 020°22'0 0.0
2018-Nov-02 05:30N 54°60' E 020°22'0 0.0
2018-Nov-02 05:03N 54°60' E 020°22'0 0.0
2018-Nov-02 05:00N 54°60' E 020°22'0 0.0
2018-Nov-02 04:30N 54°60' E 020°22'0 0.0
2018-Nov-02 04:03N 54°60' E 020°22'0 0.0
2018-Nov-02 04:00N 54°60' E 020°22'0 0.1
2018-Nov-02 03:30N 54°59' E 020°22'0 1.1
2018-Nov-02 03:03N 54°60' E 020°21'0 4.0
2018-Nov-02 03:00N 54°60' E 020°21'2 3.9
2018-Nov-02 02:30N 54°60' E 020°17'2 3.9
2018-Nov-02 02:03N 55°00' E 020°15'0 3.7
2018-Nov-02 02:00N 55°01' E 020°14'2 3.7
2018-Nov-02 01:30N 55°01' E 020°11'2 3.6
2018-Nov-02 01:03N 55°01' E 020°08'0 3.6
2018-Nov-02 01:00N 55°01' E 020°08'0 3.6
2018-Nov-02 00:55N 55°01' E 020°07'1 3.5
2018-Nov-02 00:36N 55°01' E 020°05'0 3.5
2018-Nov-02 00:30N 55°01' E 020°05'2 3.4
2018-Nov-02 00:03N 55°01' E 020°02'0 3.2
2018-Nov-02 00:00N 55°01' E 020°02'2 3.2
2018-Nov-01 23:30N 55°01' E 019°59'1 3.1
2018-Nov-01 23:02N 55°01' E 019°57'0 3.0
2018-Nov-01 23:00N 55°01' E 019°56'12 3.7
2018-Nov-01 19:48N 54°51' E 019°44'2 3.9
2018-Nov-01 19:18N 54°49' E 019°43'1 3.7
2018-Nov-01 19:01N 54°48' E 019°42'0 3.8
2018-Nov-01 18:59N 54°48' E 019°42'2 3.9
2018-Nov-01 18:30N 54°47' E 019°41'2 3.8
2018-Nov-01 18:03N 54°45' E 019°40'0 4.4
2018-Nov-01 17:59N 54°45' E 019°40'1 3.1
2018-Nov-01 17:30N 54°43' E 019°41'2 4.5
2018-Nov-01 17:04N 54°42' E 019°43'0 4.6
2018-Nov-01 17:00N 54°42' E 019°44'3 4.9
2018-Nov-01 16:30N 54°41' E 019°47'3 7.0
2018-Nov-01 16:03N 54°39' E 019°52'0 6.4
2018-Nov-01 16:00N 54°39' E 019°52'2 3.9
2018-Nov-01 15:30N 54°38' E 019°55'0 0.1
2018-Nov-01 15:01N 54°38' E 019°55'0 0.0
2018-Nov-01 14:58N 54°38' E 019°55'0 0.0
2018-Nov-01 14:28N 54°38' E 019°55'0 0.0
2018-Nov-01 13:58N 54°38' E 019°55'0 0.0
2018-Nov-01 13:28N 54°38' E 019°55'0 0.0
2018-Nov-01 12:58N 54°38' E 019°55'0 0.0
2018-Nov-01 12:28N 54°38' E 019°55'0 0.0
2018-Nov-01 12:01N 54°38' E 019°55'0 0.0
2018-Nov-01 11:58N 54°38' E 019°55'0 0.0
2018-Nov-01 11:28N 54°38' E 019°55'0 0.0
2018-Nov-01 10:58N 54°38' E 019°55'0 0.0
2018-Nov-01 10:28N 54°38' E 019°55'0 0.0
2018-Nov-01 10:01N 54°38' E 019°55'0 0.0
2018-Nov-01 09:55N 54°38' E 019°55'0 0.0
2018-Nov-01 09:28N 54°38' E 019°55'0 0.0
2018-Nov-01 09:01N 54°38' E 019°55'0 0.0
2018-Nov-01 08:58N 54°38' E 019°55'0 0.0
2018-Nov-01 08:28N 54°38' E 019°55'0 0.0
2018-Nov-01 07:58N 54°38' E 019°55'0 0.0
2018-Nov-01 07:28N 54°38' E 019°55'0 0.0
2018-Nov-01 07:01N 54°38' E 019°55'0 0.0
2018-Nov-01 06:58N 54°38' E 019°55'0 0.0
2018-Nov-01 06:28N 54°38' E 019°55'0 0.0
2018-Nov-01 05:58N 54°38' E 019°55'0 0.0
2018-Nov-01 05:28N 54°38' E 019°55'0 0.0
2018-Nov-01 05:01N 54°38' E 019°55'0 0.0
2018-Nov-01 04:55N 54°38' E 019°55'0 0.0
2018-Nov-01 04:28N 54°38' E 019°55'0 0.0
2018-Nov-01 04:01N 54°38' E 019°55'0 0.0
2018-Nov-01 03:58N 54°38' E 019°55'0 0.0
2018-Nov-01 03:28N 54°38' E 019°55'0 0.0
2018-Nov-01 02:58N 54°38' E 019°55'  
Track history (hours):
 
Tides and Currents Weather Stations Pressure Air Temp Water Temp Dewpoint Dewpoint Depression Visibility Wind Speed Wind Dir Waves Ship Positions

Atlasgracht

Last reported at 2018-Nov-11 02:30 UTC. Time now 2018-Nov-18 16:09 UTC.
Position N 54°42' E 020°28'.

Length 130 m; beam 19 m; draft 9 m.

Type: Cargo ship. MMSI: 244060802.

Date/timePositionNaut miles runAvg speedWind from/ knotsBaromVisibWave heightAir tempDewpointWater temp
2018-Nov-11 02:30N 54°42' E 020°28'0 0.0
2018-Nov-11 02:00N 54°42' E 020°28'0 0.0
2018-Nov-11 01:30N 54°42' E 020°28'0 0.0
2018-Nov-11 00:57N 54°42' E 020°28'0 0.0
2018-Nov-11 00:30N 54°42' E 020°28'0 0.0
2018-Nov-10 23:54N 54°42' E 020°28'0 0.0
2018-Nov-10 23:27N 54°42' E 020°28'0 0.0
2018-Nov-10 23:00N 54°42' E 020°28'0 0.0
2018-Nov-10 22:27N 54°42' E 020°28'0 0.0
2018-Nov-10 21:57N 54°42' E 020°28'0 0.0
2018-Nov-10 21:27N 54°42' E 020°28'0 0.0
2018-Nov-10 20:57N 54°42' E 020°28'0 0.0
2018-Nov-10 20:30N 54°42' E 020°28'0 0.0
2018-Nov-10 19:45N 54°42' E 020°28'0 0.0
2018-Nov-10 19:27N 54°42' E 020°28'0 0.0
2018-Nov-10 19:00N 54°42' E 020°28'0 0.0
2018-Nov-10 18:27N 54°42' E 020°28'0 0.0
2018-Nov-10 17:42N 54°42' E 020°28'0 0.0
2018-Nov-10 17:21N 54°42' E 020°28'0 0.0
2018-Nov-10 17:00N 54°42' E 020°28'0 0.0
2018-Nov-10 16:27N 54°42' E 020°28'0 0.0
2018-Nov-10 16:00N 54°42' E 020°28'0 0.0
2018-Nov-10 15:30N 54°42' E 020°28'0 0.0
2018-Nov-10 15:00N 54°42' E 020°28'0 0.0
2018-Nov-10 14:27N 54°42' E 020°28'0 0.0
2018-Nov-10 14:00N 54°42' E 020°28'0 0.0
2018-Nov-10 13:30N 54°42' E 020°28'0 0.0
2018-Nov-10 13:00N 54°42' E 020°28'0 0.0
2018-Nov-10 12:24N 54°42' E 020°28'0 0.0
2018-Nov-10 12:00N 54°42' E 020°28'0 0.0
2018-Nov-10 11:27N 54°42' E 020°28'0 0.6
2018-Nov-10 11:02N 54°42' E 020°28'3 5.3
2018-Nov-10 10:32N 54°41' E 020°23'4 7.4
2018-Nov-10 10:02N 54°41' E 020°17'4 7.1
2018-Nov-10 09:32N 54°41' E 020°11'3 5.6
2018-Nov-10 09:02N 54°39' E 020°07'3 6.0
2018-Nov-10 08:32N 54°39' E 020°02'4 7.1
2018-Nov-10 08:02N 54°38' E 019°56'3 6.0
2018-Nov-10 07:32N 54°39' E 019°51'2 3.3
2018-Nov-10 07:02N 54°39' E 019°48'0 0.1
2018-Nov-10 06:30N 54°39' E 019°48'0 0.0
2018-Nov-10 06:00N 54°39' E 019°48'0 0.0
2018-Nov-10 05:32N 54°39' E 019°48'0 0.2
2018-Nov-10 05:02N 54°40' E 019°48'2 3.5
2018-Nov-10 04:32N 54°41' E 019°46'2 4.6
2018-Nov-10 04:02N 54°42' E 019°43'4 7.0
2018-Nov-10 03:32N 54°45' E 019°40'5 9.7
2018-Nov-10 03:02N 54°50' E 019°43'5 9.8
2018-Nov-10 02:32N 54°54' E 019°46'510.1
2018-Nov-10 02:02N 54°59' E 019°50'5 9.9
2018-Nov-10 01:32N 55°01' E 019°58'510.2
2018-Nov-10 01:02N 55°01' E 020°07'510.1
2018-Nov-10 00:32N 55°00' E 020°16'3 6.8
2018-Nov-10 00:02N 54°59' E 020°21'0 0.3
2018-Nov-09 23:32N 54°59' E 020°22'0 0.0
2018-Nov-09 23:02N 54°59' E 020°22'0 0.0
2018-Nov-09 22:32N 54°59' E 020°22'0 0.0
2018-Nov-09 22:02N 54°59' E 020°22'0 0.0
2018-Nov-09 21:32N 54°59' E 020°22'0 0.9
2018-Nov-09 21:02N 54°59' E 020°22'0 0.0
2018-Nov-09 20:32N 54°59' E 020°22'0 0.0
2018-Nov-09 20:02N 54°59' E 020°22'0 0.1
2018-Nov-09 19:32N 54°59' E 020°23'0 0.2
2018-Nov-09 19:02N 54°59' E 020°23'0 0.5
2018-Nov-09 18:32N 54°59' E 020°23'0 0.3
2018-Nov-09 18:02N 54°59' E 020°23'0 0.0
2018-Nov-09 17:32N 54°59' E 020°23'0 0.0
2018-Nov-09 17:02N 54°59' E 020°23'0 0.0
2018-Nov-09 16:32N 54°59' E 020°23'0 0.0
2018-Nov-09 16:02N 54°59' E 020°23'0 0.0
2018-Nov-09 15:32N 54°59' E 020°23'0 0.0
2018-Nov-09 15:02N 54°59' E 020°23'0 0.0
2018-Nov-09 14:32N 54°59' E 020°23'0 0.2
2018-Nov-09 14:02N 54°59' E 020°23'0 0.5
2018-Nov-09 13:32N 54°59' E 020°22'0 0.2
2018-Nov-09 13:02N 54°59' E 020°22'0 0.6
2018-Nov-09 12:32N 54°59' E 020°22'0 0.2
2018-Nov-09 12:02N 54°59' E 020°22'0 0.2
2018-Nov-09 11:32N 54°59' E 020°22'0 0.0
2018-Nov-09 11:02N 54°59' E 020°22'0 0.1
2018-Nov-09 10:32N 54°59' E 020°22'0 0.0
2018-Nov-09 10:02N 54°59' E 020°22'0 0.0
2018-Nov-09 09:32N 54°59' E 020°22'0 0.4
2018-Nov-09 09:02N 54°59' E 020°21'0 0.4
2018-Nov-09 08:32N 54°59' E 020°21'0 0.2
2018-Nov-09 08:02N 54°59' E 020°21'0 0.4
2018-Nov-09 07:32N 54°59' E 020°21'3 5.9
2018-Nov-09 07:02N 55°00' E 020°16'3 6.4
2018-Nov-09 06:32N 55°01' E 020°11'3 6.5
2018-Nov-09 06:02N 55°01' E 020°05'4 6.4
2018-Nov-09 05:28N 55°01' E 019°59'7 5.9
2018-Nov-09 04:13N 54°56' E 019°48'1 6.5
2018-Nov-09 04:01N 54°55' E 019°47'3 6.2
2018-Nov-09 03:32N 54°52' E 019°45'3 6.0
2018-Nov-09 03:02N 54°50' E 019°43'3 6.1
2018-Nov-09 02:32N 54°47' E 019°41'3 5.6
2018-Nov-09 02:02N 54°44' E 019°42'3 6.3
2018-Nov-09 01:32N 54°42' E 019°46'4 7.2
2018-Nov-09 01:02N 54°40' E 019°51'3 5.6
2018-Nov-09 00:30N 54°38' E 019°55'0 0.0
2018-Nov-09 00:00N 54°38' E 019°55'0 0.0
2018-Nov-08 23:30N 54°38' E 019°55'0 0.0
2018-Nov-08 23:00N 54°38' E 019°55'0 0.0
2018-Nov-08 22:30N 54°38' E 019°55'0 0.0
2018-Nov-08 22:00N 54°38' E 019°55'0 0.0
2018-Nov-08 21:30N 54°38' E 019°55'0 0.0
2018-Nov-08 21:00N 54°38' E 019°55'0 0.0
2018-Nov-08 20:30N 54°38' E 019°55'0 0.0
2018-Nov-08 20:00N 54°38' E 019°55'0 0.0
2018-Nov-08 19:30N 54°38' E 019°55'0 0.0
2018-Nov-08 19:00N 54°38' E 019°55'0 0.0
2018-Nov-08 18:30N 54°38' E 019°55'0 0.0
2018-Nov-08 18:00N 54°38' E 019°55'0 0.0
2018-Nov-08 17:30N 54°38' E 019°55'0 0.0
2018-Nov-08 17:00N 54°38' E 019°55'0 0.0
2018-Nov-08 16:30N 54°38' E 019°55'0 0.0
2018-Nov-08 16:02N 54°38' E 019°55'0 0.0
2018-Nov-08 15:32N 54°38' E 019°55'0 0.0
2018-Nov-08 15:02N 54°38' E 019°55'0 0.0
2018-Nov-08 14:32N 54°38' E 019°55'0 0.0
2018-Nov-08 14:02N 54°38' E 019°55'0 0.0
2018-Nov-08 13:32N 54°38' E 019°55'0 0.0
2018-Nov-08 13:02N 54°38' E 019°55'0 0.0
2018-Nov-08 12:32N 54°38' E 019°55'0 0.0
2018-Nov-08 12:02N 54°38' E 019°55'0 0.0
2018-Nov-08 11:32N 54°38' E 019°55'0 0.0
2018-Nov-08 11:02N 54°38' E 019°55'0 0.0
2018-Nov-08 10:32N 54°38' E 019°55'0 0.0
2018-Nov-08 10:02N 54°38' E 019°55'0 0.0
2018-Nov-08 09:32N 54°38' E 019°55'1 1.4
2018-Nov-08 09:02N 54°38' E 019°54'3 5.7
2018-Nov-08 08:32N 54°39' E 019°50'1 1.4
2018-Nov-08 08:01N 54°39' E 019°49'0 0.0
2018-Nov-08 07:31N 54°39' E 019°49'0 0.0
2018-Nov-08 07:01N 54°39' E 019°49'0 0.0
2018-Nov-08 06:31N 54°39' E 019°49'0 0.0
2018-Nov-08 06:01N 54°39' E 019°49'0 0.0
2018-Nov-08 05:28N 54°39' E 019°49'0 0.0
2018-Nov-08 05:01N 54°39' E 019°49'0 0.0
2018-Nov-08 04:31N 54°39' E 019°49'0 0.0
2018-Nov-08 04:01N 54°39' E 019°49'0 0.0
2018-Nov-08 03:31N 54°39' E 019°49'0 0.0
2018-Nov-08 03:01N 54°39' E 019°49'0 0.0
2018-Nov-08 02:31N 54°39' E 019°49'0 0.0
2018-Nov-08 02:01N 54°39' E 019°49'0 0.0
2018-Nov-08 01:28N 54°39' E 019°49'0 0.0
2018-Nov-08 01:01N 54°39' E 019°49'0 0.0
2018-Nov-08 00:43N 54°39' E 019°49'0 0.0
2018-Nov-08 00:31N 54°39' E 019°49'0 0.0
2018-Nov-08 00:22N 54°39' E 019°49'0 0.0
2018-Nov-08 00:01N 54°39' E 019°49'0 0.0
2018-Nov-07 23:31N 54°39' E 019°49'0 0.0
2018-Nov-07 23:01N 54°39' E 019°49'0 0.0
2018-Nov-07 22:31N 54°39' E 019°49'0 0.2
2018-Nov-07 22:02N 54°39' E 019°49'3 6.0
2018-Nov-07 21:32N 54°41' E 019°45'5 9.5
2018-Nov-07 21:02N 54°45' E 019°40'611.9
2018-Nov-07 20:32N 54°51' E 019°44'712.4
2018-Nov-07 20:00N 54°57' E 019°48'612.4
2018-Nov-07 19:32N 55°01' E 019°56'713.2
2018-Nov-07 19:02N 55°01' E 020°07'612.1
2018-Nov-07 18:32N 54°60' E 020°18'3 5.3
2018-Nov-07 18:02N 54°59' E 020°22'0 0.3
2018-Nov-07 17:32N 54°59' E 020°22'0 0.0
2018-Nov-07 17:02N 54°59' E 020°22'0 0.0
2018-Nov-07 16:32N 54°59' E 020°22'0 0.0
2018-Nov-07 16:02N 54°59' E 020°22'0 0.0
2018-Nov-07 15:32N 54°59' E 020°22'0 0.0
2018-Nov-07 15:02N 54°59' E 020°22'0 0.0
2018-Nov-07 14:31N 54°59' E 020°22'0 0.0
2018-Nov-07 14:02N 54°59' E 020°22'0 0.0
2018-Nov-07 13:32N 54°59' E 020°22'0 0.0
2018-Nov-07 13:02N 54°59' E 020°22'0 0.0
2018-Nov-07 12:32N 54°59' E 020°22'0 0.0
2018-Nov-07 12:02N 54°59' E 020°22'0 0.0
2018-Nov-07 11:32N 54°59' E 020°22'0 0.0
2018-Nov-07 11:02N 54°59' E 020°22'0 0.0
2018-Nov-07 10:32N 54°59' E 020°22'0 0.0
2018-Nov-07 10:02N 54°59' E 020°22'0 0.0
2018-Nov-07 09:32N 54°59' E 020°22'0 0.0
2018-Nov-07 09:02N 54°59' E 020°22'0 0.0
2018-Nov-07 08:32N 54°59' E 020°22'0 0.0
2018-Nov-07 08:02N 54°59' E 020°22'0 0.0
2018-Nov-07 07:32N 54°59' E 020°22'0 0.0
2018-Nov-07 07:02N 54°59' E 020°22'0 0.0
2018-Nov-07 06:32N 54°59' E 020°22'0 0.0
2018-Nov-07 06:02N 54°59' E 020°22'0 0.0
2018-Nov-07 05:32N 54°59' E 020°22'0 0.0
2018-Nov-07 05:02N 54°59' E 020°22'0 0.0
2018-Nov-07 04:32N 54°59' E 020°22'0 0.0
2018-Nov-06 23:30N 54°59' E 020°22'0 0.0
2018-Nov-06 23:03N 54°59' E 020°22'0 0.0
2018-Nov-06 23:00N 54°59' E 020°22'0 0.0
2018-Nov-06 22:00N 54°59' E 020°22'0 0.0
2018-Nov-06 21:30N 54°59' E 020°22'0 0.3
2018-Nov-06 21:03N 54°59' E 020°22'0 0.8
2018-Nov-06 21:00N 54°59' E 020°22'0 0.5
2018-Nov-06 20:30N 54°59' E 020°23'0 0.5
2018-Nov-06 20:03N 54°59' E 020°23'0 0.5
2018-Nov-06 20:00N 54°59' E 020°23'0 0.0
2018-Nov-06 19:30N 54°59' E 020°23'0 0.0
2018-Nov-06 19:03N 54°59' E 020°23'0 0.0
2018-Nov-06 19:00N 54°59' E 020°23'0 0.0
2018-Nov-06 18:30N 54°59' E 020°23'0 0.0
2018-Nov-06 18:03N 54°59' E 020°23'0 0.0
2018-Nov-06 18:00N 54°59' E 020°23'0 0.0
2018-Nov-06 17:30N 54°59' E 020°23'0 0.0
2018-Nov-06 17:03N 54°59' E 020°23'0 0.0
2018-Nov-06 17:00N 54°59' E 020°23'0 0.0
2018-Nov-06 16:30N 54°59' E 020°23'0 0.0
2018-Nov-06 16:03N 54°59' E 020°23'0 0.0
2018-Nov-06 16:00N 54°59' E 020°23'0 0.0
2018-Nov-06 15:30N 54°59' E 020°23'0 0.0
2018-Nov-06 15:03N 54°59' E 020°23'0 0.0
2018-Nov-06 15:00N 54°59' E 020°23'0 0.0
2018-Nov-06 14:30N 54°59' E 020°23'0 0.0
2018-Nov-06 14:03N 54°59' E 020°23'0 0.0
2018-Nov-06 14:00N 54°59' E 020°23'0 0.0
2018-Nov-06 13:30N 54°59' E 020°23'0 0.0
2018-Nov-06 13:03N 54°59' E 020°23'0 0.0
2018-Nov-06 13:00N 54°59' E 020°23'0 0.0
2018-Nov-06 12:30N 54°59' E 020°23'0 0.0
2018-Nov-06 12:03N 54°59' E 020°23'0 0.0
2018-Nov-06 12:00N 54°59' E 020°23'0 0.0
2018-Nov-06 11:30N 54°59' E 020°23'0 0.0
2018-Nov-06 11:03N 54°59' E 020°23'0 0.0
2018-Nov-06 11:00N 54°59' E 020°23'0 0.0
2018-Nov-06 10:30N 54°59' E 020°23'0 0.0
2018-Nov-06 10:03N 54°59' E 020°23'0 0.1
2018-Nov-06 10:00N 54°59' E 020°23'0 0.4
2018-Nov-06 09:30N 54°59' E 020°23'0 0.4
2018-Nov-06 09:03N 54°59' E 020°23'0 2.0
2018-Nov-06 09:00N 54°59' E 020°22'1 1.6
2018-Nov-06 08:30N 54°59' E 020°21'0 0.0
2018-Nov-06 08:03N 54°59' E 020°21'0 0.0
2018-Nov-06 08:00N 54°59' E 020°21'1 2.4
2018-Nov-06 07:30N 54°60' E 020°19'2 3.9
2018-Nov-06 07:03N 55°00' E 020°16'0 3.9
2018-Nov-06 07:00N 55°00' E 020°16'2 3.8
2018-Nov-06 06:30N 55°01' E 020°13'2 4.2
2018-Nov-06 06:03N 55°01' E 020°09'0 4.2
2018-Nov-06 06:00N 55°01' E 020°09'2 4.2
2018-Nov-06 05:30N 55°01' E 020°05'2 4.1
2018-Nov-06 05:03N 55°01' E 020°02'0 4.2
2018-Nov-06 05:00N 55°01' E 020°02'2 4.3
2018-Nov-06 04:30N 55°01' E 019°58'2 3.9
2018-Nov-06 04:03N 55°01' E 019°55'0 3.3
2018-Nov-06 04:00N 55°01' E 019°55'2 3.7
2018-Nov-06 03:30N 54°59' E 019°52'2 4.1
2018-Nov-06 03:03N 54°58' E 019°50'0 4.0
2018-Nov-06 03:00N 54°58' E 019°50'2 4.1
2018-Nov-06 02:30N 54°56' E 019°48'2 4.2
2018-Nov-06 02:03N 54°54' E 019°46'0 4.3
2018-Nov-06 02:00N 54°54' E 019°46'2 4.2
2018-Nov-06 01:30N 54°52' E 019°45'4 4.3
2018-Nov-06 00:30N 54°48' E 019°42'4 4.3
2018-Nov-05 23:30N 54°44' E 019°40'2 3.9
2018-Nov-05 23:03N 54°43' E 019°42'0 4.3
2018-Nov-05 23:00N 54°43' E 019°42'2 4.3
2018-Nov-05 22:30N 54°42' E 019°45'2 5.6
2018-Nov-05 22:03N 54°40' E 019°49'0 6.5
2018-Nov-05 22:00N 54°40' E 019°49'3 6.3
2018-Nov-05 21:30N 54°38' E 019°54'1 1.9
2018-Nov-05 21:00N 54°38' E 019°55'0 0.0
2018-Nov-05 20:30N 54°38' E 019°55'0 0.0
2018-Nov-05 20:03N 54°38' E 019°55'0 0.0
2018-Nov-05 20:00N 54°38' E 019°55'0 0.0
2018-Nov-05 19:30N 54°38' E 019°55'0 0.0
2018-Nov-05 19:03N 54°38' E 019°55'0 0.0
2018-Nov-05 19:00N 54°38' E 019°55'0 0.0
2018-Nov-05 18:30N 54°38' E 019°55'0 0.0
2018-Nov-05 18:03N 54°38' E 019°55'0 0.0
2018-Nov-05 18:00N 54°38' E 019°55'0 0.0
2018-Nov-05 17:30N 54°38' E 019°55'0 0.0
2018-Nov-05 17:03N 54°38' E 019°55'0 0.0
2018-Nov-05 16:57N 54°38' E 019°55'0 0.0
2018-Nov-05 16:27N 54°38' E 019°55'0 0.0
2018-Nov-05 16:03N 54°38' E 019°55'0 0.0
2018-Nov-05 16:00N 54°38' E 019°55'0 0.0
2018-Nov-05 15:30N 54°38' E 019°55'0 0.0
2018-Nov-05 15:03N 54°38' E 019°55'0 0.0
2018-Nov-05 14:57N 54°38' E 019°55'0 0.0
2018-Nov-05 14:30N 54°38' E 019°55'0 0.0
2018-Nov-05 14:03N 54°38' E 019°55'0 0.0
2018-Nov-05 14:00N 54°38' E 019°55'0 0.0
2018-Nov-05 13:00N 54°38' E 019°55'0 0.0
2018-Nov-05 12:30N 54°38' E 019°55'0 0.0
2018-Nov-05 12:03N 54°38' E 019°55'0 0.0
2018-Nov-05 12:00N 54°38' E 019°55'0 0.0
2018-Nov-05 11:27N 54°38' E 019°55'0 0.0
2018-Nov-05 11:03N 54°38' E 019°55'0 0.0
2018-Nov-05 11:00N 54°38' E 019°55'0 0.0
2018-Nov-05 10:30N 54°38' E 019°55'0 0.0
2018-Nov-05 10:03N 54°38' E 019°55'0 0.0
2018-Nov-05 10:00N 54°38' E 019°55'0 0.0
2018-Nov-05 09:30N 54°38' E 019°55'0 0.0
2018-Nov-05 09:03N 54°38' E 019°55'0 0.0
2018-Nov-05 09:00N 54°38' E 019°55'0 0.0
2018-Nov-05 08:30N 54°38' E 019°55'0 0.0
2018-Nov-05 08:03N 54°38' E 019°55'0 0.0
2018-Nov-05 08:00N 54°38' E 019°55'0 0.0
2018-Nov-05 07:30N 54°38' E 019°55'0 0.0
2018-Nov-05 07:03N 54°38' E 019°55'0 0.0
2018-Nov-05 07:00N 54°38' E 019°55'0 0.0
2018-Nov-05 06:30N 54°38' E 019°55'0 0.0
2018-Nov-05 06:03N 54°38' E 019°55'0 0.0
2018-Nov-05 06:00N 54°38' E 019°55'0 0.0
2018-Nov-05 05:30N 54°38' E 019°55'0 0.0
2018-Nov-05 05:03N 54°38' E 019°55'0 0.0
2018-Nov-05 05:00N 54°38' E 019°55'0 0.0
2018-Nov-05 04:30N 54°38' E 019°55'0 0.0
2018-Nov-05 04:03N 54°38' E 019°55'0 0.0
2018-Nov-05 04:00N 54°38' E 019°55'0 0.0
2018-Nov-05 03:30N 54°38' E 019°55'0 0.0
2018-Nov-05 03:03N 54°38' E 019°55'0 0.0
2018-Nov-05 03:00N 54°38' E 019°55'0 0.0
2018-Nov-05 02:30N 54°38' E 019°55'0 0.0
2018-Nov-05 02:03N 54°38' E 019°55'0 0.0
2018-Nov-05 02:00N 54°38' E 019°55'0 0.0
2018-Nov-05 01:30N 54°38' E 019°55'0 0.0
2018-Nov-05 01:00N 54°38' E 019°55'0 0.0
2018-Nov-05 00:30N 54°38' E 019°55'0 0.0
2018-Nov-05 00:00N 54°38' E 019°55'0 0.0
2018-Nov-04 23:30N 54°38' E 019°55'0 0.0
2018-Nov-04 23:03N 54°38' E 019°55'0 0.0
2018-Nov-04 23:00N 54°38' E 019°55'0 0.0
2018-Nov-04 22:30N 54°38' E 019°55'0 0.0
2018-Nov-04 22:03N 54°38' E 019°55'0 0.0
2018-Nov-04 22:00N 54°38' E 019°55'0 0.0
2018-Nov-04 21:27N 54°38' E 019°55'0 0.0
2018-Nov-04 21:03N 54°38' E 019°55'0 0.0
2018-Nov-04 20:57N 54°38' E 019°55'0 0.0
2018-Nov-04 20:30N 54°38' E 019°55'0 0.0
2018-Nov-04 20:03N 54°38' E 019°55'0 0.0
2018-Nov-04 20:00N 54°38' E 019°55'0 0.0
2018-Nov-04 19:30N 54°38' E 019°55'0 0.0
2018-Nov-04 19:03N 54°38' E 019°55'0 0.0
2018-Nov-04 19:00N 54°38' E 019°55'0 0.0
2018-Nov-04 18:30N 54°38' E 019°55'0 0.8
2018-Nov-04 18:03N 54°38' E 019°55'0 4.0
2018-Nov-04 18:00N 54°38' E 019°54'3 6.3
2018-Nov-04 17:30N 54°40' E 019°50'2 3.8
2018-Nov-04 17:00N 54°40' E 019°46'0 0.3
2018-Nov-04 16:30N 54°40' E 019°46'1 2.4
2018-Nov-04 16:03N 54°41' E 019°45'0 2.4
2018-Nov-04 16:00N 54°41' E 019°45'1 2.1
2018-Nov-04 15:30N 54°42' E 019°43'1 2.2
2018-Nov-04 15:03N 54°42' E 019°42'0 2.2
2018-Nov-04 15:00N 54°42' E 019°41'1 2.0
2018-Nov-04 14:30N 54°43' E 019°40'1 1.9
2018-Nov-04 14:03N 54°43' E 019°39'0 2.0
2018-Nov-04 14:00N 54°43' E 019°39'1 2.5
2018-Nov-04 13:30N 54°45' E 019°39'2 3.2
2018-Nov-04 12:58N 54°46' E 019°40'2 3.7
2018-Nov-04 12:29N 54°48' E 019°41'1 2.7
2018-Nov-04 12:03N 54°49' E 019°42'0 2.7
2018-Nov-04 12:00N 54°49' E 019°42'1 2.8
2018-Nov-04 11:30N 54°50' E 019°43'3 7.6
2018-Nov-04 11:03N 54°53' E 019°46'010.0
2018-Nov-04 11:00N 54°54' E 019°46'510.0
2018-Nov-04 10:30N 54°58' E 019°51'510.1
2018-Nov-04 10:03N 55°01' E 019°57'110.6
2018-Nov-04 10:00N 55°01' E 019°58'611.9
2018-Nov-04 09:30N 55°01' E 020°08'612.5
2018-Nov-04 09:03N 55°00' E 020°18'0 7.1
2018-Nov-04 09:00N 54°60' E 020°19'2 3.7
2018-Nov-04 08:30N 54°60' E 020°22'1 1.3
2018-Nov-04 08:03N 54°59' E 020°22'0 0.5
2018-Nov-04 08:00N 54°59' E 020°22'0 0.1
2018-Nov-04 07:30N 54°59' E 020°22'0 0.0
2018-Nov-04 07:03N 54°59' E 020°22'0 0.0
2018-Nov-04 07:00N 54°59' E 020°22'0 0.0
2018-Nov-04 06:30N 54°59' E 020°22'0 0.0
2018-Nov-04 06:03N 54°59' E 020°22'0 0.1
2018-Nov-04 06:00N 54°59' E 020°22'0 0.0
2018-Nov-04 05:30N 54°59' E 020°22'0 0.0
2018-Nov-04 05:03N 54°59' E 020°22'0 0.0
2018-Nov-04 05:00N 54°59' E 020°22'0 0.0
2018-Nov-04 04:30N 54°59' E 020°22'0 0.0
2018-Nov-04 04:03N 54°59' E 020°22'0 0.0
2018-Nov-04 04:00N 54°59' E 020°22'0 0.0
2018-Nov-04 03:30N 54°59' E 020°22'0 0.0
2018-Nov-04 03:03N 54°59' E 020°22'0 0.1
2018-Nov-04 03:00N 54°59' E 020°22'0 0.0
2018-Nov-04 02:30N 54°59' E 020°22'0 0.0
2018-Nov-04 02:03N 54°59' E 020°22'0 0.0
2018-Nov-04 02:00N 54°59' E 020°22'0 0.0
2018-Nov-04 01:30N 54°59' E 020°22'0 0.0
2018-Nov-04 01:03N 54°59' E 020°22'0 0.0
2018-Nov-04 01:00N 54°59' E 020°22'0 0.0
2018-Nov-04 00:30N 54°59' E 020°22'0 0.0
2018-Nov-04 00:03N 54°59' E 020°22'0 0.1
2018-Nov-04 00:00N 54°59' E 020°22'0 0.0
2018-Nov-03 23:30N 54°59' E 020°22'0 0.0
2018-Nov-03 23:03N 54°59' E 020°22'0 0.0
2018-Nov-03 23:00N 54°59' E 020°22'0 0.0
2018-Nov-03 22:30N 54°59' E 020°22'0 0.0
2018-Nov-03 20:30N 54°59' E 020°22'0 0.0
2018-Nov-03 20:03N 54°59' E 020°22'0 0.0
2018-Nov-03 20:00N 54°59' E 020°22'0 0.0
2018-Nov-03 19:30N 54°59' E 020°22'0 0.0
2018-Nov-03 19:03N 54°59' E 020°22'0 0.0
2018-Nov-03 19:00N 54°59' E 020°22'0 0.0
2018-Nov-03 18:30N 54°59' E 020°22'0 0.0
2018-Nov-03 18:03N 54°59' E 020°22'0 0.0
2018-Nov-03 18:00N 54°59' E 020°22'0 0.0
2018-Nov-03 17:30N 54°59' E 020°22'0 0.0
2018-Nov-03 17:03N 54°59' E 020°22'0 0.0
2018-Nov-03 17:00N 54°59' E 020°22'0 0.0
2018-Nov-03 16:30N 54°59' E 020°22'0 0.0
2018-Nov-03 16:03N 54°59' E 020°22'0 0.0
2018-Nov-03 16:00N 54°59' E 020°22'0 0.0
2018-Nov-03 15:30N 54°59' E 020°22'0 0.0
2018-Nov-03 15:03N 54°59' E 020°22'0 0.1
2018-Nov-03 15:00N 54°59' E 020°22'0 0.0
2018-Nov-03 14:30N 54°59' E 020°22'0 0.0
2018-Nov-03 14:03N 54°59' E 020°22'0 0.0
2018-Nov-03 14:00N 54°59' E 020°22'0 0.0
2018-Nov-03 13:30N 54°59' E 020°22'0 0.0
2018-Nov-03 13:03N 54°59' E 020°22'0 0.0
2018-Nov-03 13:00N 54°59' E 020°22'0 0.0
2018-Nov-03 12:30N 54°59' E 020°22'0 0.0
2018-Nov-03 12:03N 54°59' E 020°22'0 0.0
2018-Nov-03 12:00N 54°59' E 020°22'0 0.0
2018-Nov-03 11:30N 54°59' E 020°22'0 0.0
2018-Nov-03 11:03N 54°59' E 020°22'0 0.0
2018-Nov-03 11:00N 54°59' E 020°22'0 0.0
2018-Nov-03 10:30N 54°59' E 020°22'0 0.0
2018-Nov-03 10:03N 54°59' E 020°22'0 0.0
2018-Nov-03 10:00N 54°59' E 020°22'0 0.0
2018-Nov-03 09:30N 54°59' E 020°22'0 0.0
2018-Nov-03 09:03N 54°59' E 020°22'0 0.0
2018-Nov-03 09:00N 54°59' E 020°22'0 0.0
2018-Nov-03 08:30N 54°59' E 020°22'0 0.0
2018-Nov-03 08:03N 54°59' E 020°22'0 0.0
2018-Nov-03 08:00N 54°59' E 020°22'0 0.0
2018-Nov-03 07:30N 54°59' E 020°22'0 0.0
2018-Nov-03 07:03N 54°59' E 020°22'0 0.0
2018-Nov-03 07:00N 54°59' E 020°22'0 0.0
2018-Nov-03 06:30N 54°59' E 020°22'0 0.0
2018-Nov-03 06:03N 54°59' E 020°22'0 0.0
2018-Nov-03 06:00N 54°59' E 020°22'0 0.0
2018-Nov-03 05:30N 54°59' E 020°22'0 0.0
2018-Nov-03 05:03N 54°59' E 020°22'0 0.0
2018-Nov-03 05:00N 54°59' E 020°22'0 0.0
2018-Nov-03 04:30N 54°59' E 020°22'0 0.0
2018-Nov-03 04:03N 54°59' E 020°22'0 0.0
2018-Nov-03 04:00N 54°59' E 020°22'0 0.0
2018-Nov-03 03:30N 54°59' E 020°22'0 0.0
2018-Nov-03 03:03N 54°59' E 020°22'0 0.0
2018-Nov-03 03:00N 54°59' E 020°22'0 0.0
2018-Nov-03 02:30N 54°59' E 020°22'0 0.0
2018-Nov-03 02:03N 54°59' E 020°22'0 0.0
2018-Nov-03 02:00N 54°59' E 020°22'0 0.0
2018-Nov-03 01:30N 54°59' E 020°22'0 0.0
2018-Nov-03 01:03N 54°59' E 020°22'0 0.0
2018-Nov-03 01:00N 54°59' E 020°22'0 0.0
2018-Nov-03 00:30N 54°59' E 020°22'0 0.0
2018-Nov-03 00:03N 54°59' E 020°22'0 0.0
2018-Nov-03 00:00N 54°59' E 020°22'0 0.0
2018-Nov-02 23:30N 54°59' E 020°22'0 0.0
2018-Nov-02 23:03N 54°59' E 020°22'0 0.0
2018-Nov-02 23:00N 54°59' E 020°22'0 0.0
2018-Nov-02 22:30N 54°59' E 020°22'0 0.0
2018-Nov-02 22:03N 54°59' E 020°22'0 0.0
2018-Nov-02 22:00N 54°59' E 020°22'0 0.0
2018-Nov-02 21:30N 54°59' E 020°22'0 0.0
2018-Nov-02 21:03N 54°59' E 020°22'0 0.1
2018-Nov-02 21:00N 54°59' E 020°22'0 0.1
2018-Nov-02 20:30N 54°59' E 020°22'0 0.4
2018-Nov-02 20:03N 54°59' E 020°22'0 0.5
2018-Nov-02 20:00N 54°59' E 020°22'0 0.1
2018-Nov-02 19:30N 54°59' E 020°22'0 0.3
2018-Nov-02 19:03N 54°59' E 020°22'0 0.6
2018-Nov-02 19:00N 54°59' E 020°22'0 0.7
2018-Nov-02 18:30N 54°60' E 020°22'0 0.0
2018-Nov-02 18:03N 54°60' E 020°22'0 0.0
2018-Nov-02 18:00N 54°60' E 020°22'0 0.0
2018-Nov-02 17:30N 54°60' E 020°22'0 0.1
2018-Nov-02 17:03N 54°59' E 020°22'0 1.7
2018-Nov-02 17:00N 54°59' E 020°22'1 2.7
2018-Nov-02 16:30N 54°58' E 020°20'0 0.2
2018-Nov-02 16:02N 54°59' E 020°20'0 0.5
2018-Nov-02 15:59N 54°59' E 020°21'0 0.0
2018-Nov-02 15:29N 54°59' E 020°21'0 0.0
2018-Nov-02 15:02N 54°59' E 020°21'0 0.0
2018-Nov-02 14:59N 54°59' E 020°21'0 0.0
2018-Nov-02 14:29N 54°59' E 020°21'0 0.0
2018-Nov-02 13:59N 54°59' E 020°21'0 0.0
2018-Nov-02 13:29N 54°59' E 020°21'0 0.0
2018-Nov-02 13:02N 54°59' E 020°21'0 0.0
2018-Nov-02 12:59N 54°59' E 020°21'0 0.0
2018-Nov-02 12:29N 54°59' E 020°21'0 0.0
2018-Nov-02 12:02N 54°59' E 020°21'0 0.0
2018-Nov-02 11:59N 54°59' E 020°21'0 0.0
2018-Nov-02 11:29N 54°59' E 020°21'0 0.0
2018-Nov-02 10:56N 54°59' E 020°21'0 0.0
2018-Nov-02 10:29N 54°59' E 020°21'0 0.0
2018-Nov-02 10:02N 54°59' E 020°21'0 0.1
2018-Nov-02 09:59N 54°59' E 020°21'0 0.8
2018-Nov-02 09:30N 54°59' E 020°21'1 2.0
2018-Nov-02 09:03N 54°60' E 020°22'0 0.0
2018-Nov-02 09:00N 54°60' E 020°22'0 0.0
2018-Nov-02 08:30N 54°60' E 020°22'0 0.0
2018-Nov-02 08:03N 54°60' E 020°22'0 0.0
2018-Nov-02 08:00N 54°60' E 020°22'0 0.0
2018-Nov-02 07:30N 54°60' E 020°22'0 0.0
2018-Nov-02 07:03N 54°60' E 020°22'0 0.0
2018-Nov-02 07:00N 54°60' E 020°22'0 0.0
2018-Nov-02 06:30N 54°60' E 020°22'0 0.0
2018-Nov-02 06:03N 54°60' E 020°22'0 0.0
2018-Nov-02 06:00N 54°60' E 020°22'0 0.0
2018-Nov-02 05:30N 54°60' E 020°22'0 0.0
2018-Nov-02 05:03N 54°60' E 020°22'0 0.0
2018-Nov-02 05:00N 54°60' E 020°22'0 0.0
2018-Nov-02 04:30N 54°60' E 020°22'0 0.0
2018-Nov-02 04:03N 54°60' E 020°22'0 0.0
2018-Nov-02 04:00N 54°60' E 020°22'0 0.1
2018-Nov-02 03:30N 54°59' E 020°22'0 1.1
2018-Nov-02 03:03N 54°60' E 020°21'0 4.0
2018-Nov-02 03:00N 54°60' E 020°21'2 3.9
2018-Nov-02 02:30N 54°60' E 020°17'2 3.9
2018-Nov-02 02:03N 55°00' E 020°15'0 3.7
2018-Nov-02 02:00N 55°01' E 020°14'2 3.7
2018-Nov-02 01:30N 55°01' E 020°11'2 3.6
2018-Nov-02 01:03N 55°01' E 020°08'0 3.6
2018-Nov-02 01:00N 55°01' E 020°08'0 3.6
2018-Nov-02 00:55N 55°01' E 020°07'1 3.5
2018-Nov-02 00:36N 55°01' E 020°05'0 3.5
2018-Nov-02 00:30N 55°01' E 020°05'2 3.4
2018-Nov-02 00:03N 55°01' E 020°02'0 3.2
2018-Nov-02 00:00N 55°01' E 020°02'2 3.2
2018-Nov-01 23:30N 55°01' E 019°59'1 3.1
2018-Nov-01 23:02N 55°01' E 019°57'0 3.0
2018-Nov-01 23:00N 55°01' E 019°56'12 3.7
2018-Nov-01 19:48N 54°51' E 019°44'2 3.9
2018-Nov-01 19:18N 54°49' E 019°43'1 3.7
2018-Nov-01 19:01N 54°48' E 019°42'0 3.8
2018-Nov-01 18:59N 54°48' E 019°42'2 3.9
2018-Nov-01 18:30N 54°47' E 019°41'2 3.8
2018-Nov-01 18:03N 54°45' E 019°40'0 4.4
2018-Nov-01 17:59N 54°45' E 019°40'1 3.1
2018-Nov-01 17:30N 54°43' E 019°41'2 4.5
2018-Nov-01 17:04N 54°42' E 019°43'0 4.6
2018-Nov-01 17:00N 54°42' E 019°44'3 4.9
2018-Nov-01 16:30N 54°41' E 019°47'3 7.0
2018-Nov-01 16:03N 54°39' E 019°52'0 6.4
2018-Nov-01 16:00N 54°39' E 019°52'2 3.9
2018-Nov-01 15:30N 54°38' E 019°55'0 0.1
2018-Nov-01 15:01N 54°38' E 019°55'0 0.0
2018-Nov-01 14:58N 54°38' E 019°55'0 0.0
2018-Nov-01 14:28N 54°38' E 019°55'0 0.0
2018-Nov-01 13:58N 54°38' E 019°55'0 0.0
2018-Nov-01 13:28N 54°38' E 019°55'0 0.0
2018-Nov-01 12:58N 54°38' E 019°55'0 0.0
2018-Nov-01 12:28N 54°38' E 019°55'0 0.0
2018-Nov-01 12:01N 54°38' E 019°55'0 0.0
2018-Nov-01 11:58N 54°38' E 019°55'0 0.0
2018-Nov-01 11:28N 54°38' E 019°55'0 0.0
2018-Nov-01 10:58N 54°38' E 019°55'0 0.0
2018-Nov-01 10:28N 54°38' E 019°55'0 0.0
2018-Nov-01 10:01N 54°38' E 019°55'0 0.0
2018-Nov-01 09:55N 54°38' E 019°55'0 0.0
2018-Nov-01 09:28N 54°38' E 019°55'0 0.0
2018-Nov-01 09:01N 54°38' E 019°55'0 0.0
2018-Nov-01 08:58N 54°38' E 019°55'0 0.0
2018-Nov-01 08:28N 54°38' E 019°55'0 0.0
2018-Nov-01 07:58N 54°38' E 019°55'0 0.0
2018-Nov-01 07:28N 54°38' E 019°55'0 0.0
2018-Nov-01 07:01N 54°38' E 019°55'0 0.0
2018-Nov-01 06:58N 54°38' E 019°55'0 0.0
2018-Nov-01 06:28N 54°38' E 019°55'0 0.0
2018-Nov-01 05:58N 54°38' E 019°55'0 0.0
2018-Nov-01 05:28N 54°38' E 019°55'0 0.0
2018-Nov-01 05:01N 54°38' E 019°55'0 0.0
2018-Nov-01 04:55N 54°38' E 019°55'0 0.0
2018-Nov-01 04:28N 54°38' E 019°55'0 0.0
2018-Nov-01 04:01N 54°38' E 019°55'0 0.0
2018-Nov-01 03:58N 54°38' E 019°55'0 0.0
2018-Nov-01 03:28N 54°38' E 019°55'0 0.0
2018-Nov-01 02:58N 54°38' E 019°55'  

Dump ship's entire track history